sensor_id;sensor_type;location;lat;lon;timestamp;pressure;altitude;pressure_sealevel;temperature
20103;BMP180;10210;52.284;9.892;2022-12-24T00:00:07;99241.00;;;11.60
20103;BMP180;10210;52.284;9.892;2022-12-24T00:02:33;99250.00;;;11.50
20103;BMP180;10210;52.284;9.892;2022-12-24T00:04:59;99248.00;;;11.50
20103;BMP180;10210;52.284;9.892;2022-12-24T00:07:25;99244.00;;;11.50
20103;BMP180;10210;52.284;9.892;2022-12-24T00:09:50;99243.00;;;11.40
20103;BMP180;10210;52.284;9.892;2022-12-24T00:12:16;99237.00;;;11.40
20103;BMP180;10210;52.284;9.892;2022-12-24T00:14:41;99248.00;;;11.40
20103;BMP180;10210;52.284;9.892;2022-12-24T00:17:07;99243.00;;;11.30
20103;BMP180;10210;52.284;9.892;2022-12-24T00:19:33;99254.00;;;11.30
20103;BMP180;10210;52.284;9.892;2022-12-24T00:21:58;99276.00;;;11.30
20103;BMP180;10210;52.284;9.892;2022-12-24T00:24:24;99267.00;;;11.40
20103;BMP180;10210;52.284;9.892;2022-12-24T00:26:50;99248.00;;;11.40
20103;BMP180;10210;52.284;9.892;2022-12-24T00:29:15;99256.00;;;11.50
20103;BMP180;10210;52.284;9.892;2022-12-24T00:31:41;99246.00;;;11.50
20103;BMP180;10210;52.284;9.892;2022-12-24T00:34:06;99236.00;;;11.50
20103;BMP180;10210;52.284;9.892;2022-12-24T00:36:33;99243.00;;;11.50
20103;BMP180;10210;52.284;9.892;2022-12-24T00:38:58;99243.00;;;11.40
20103;BMP180;10210;52.284;9.892;2022-12-24T00:41:24;99249.00;;;11.40
20103;BMP180;10210;52.284;9.892;2022-12-24T00:43:54;99254.00;;;11.40
20103;BMP180;10210;52.284;9.892;2022-12-24T00:46:21;99264.00;;;11.40
20103;BMP180;10210;52.284;9.892;2022-12-24T00:48:47;99255.00;;;11.30
20103;BMP180;10210;52.284;9.892;2022-12-24T00:51:13;99255.00;;;11.30
20103;BMP180;10210;52.284;9.892;2022-12-24T00:53:39;99266.00;;;11.30
20103;BMP180;10210;52.284;9.892;2022-12-24T00:56:06;99266.00;;;11.30
20103;BMP180;10210;52.284;9.892;2022-12-24T00:58:32;99256.00;;;11.30
20103;BMP180;10210;52.284;9.892;2022-12-24T01:00:58;99260.00;;;11.30
20103;BMP180;10210;52.284;9.892;2022-12-24T01:03:23;99273.00;;;11.30
20103;BMP180;10210;52.284;9.892;2022-12-24T01:06:11;99279.00;;;11.30
20103;BMP180;10210;52.284;9.892;2022-12-24T01:08:39;99288.00;;;11.30
20103;BMP180;10210;52.284;9.892;2022-12-24T01:11:07;99283.00;;;11.30
20103;BMP180;10210;52.284;9.892;2022-12-24T01:13:33;99290.00;;;11.30
20103;BMP180;10210;52.284;9.892;2022-12-24T01:15:59;99289.00;;;11.30
20103;BMP180;10210;52.284;9.892;2022-12-24T01:18:25;99295.00;;;11.30
20103;BMP180;10210;52.284;9.892;2022-12-24T01:21:02;99285.00;;;11.30
20103;BMP180;10210;52.284;9.892;2022-12-24T01:23:30;99296.00;;;11.30
20103;BMP180;10210;52.284;9.892;2022-12-24T01:26:01;99288.00;;;11.30
20103;BMP180;10210;52.284;9.892;2022-12-24T01:28:27;99284.00;;;11.30
20103;BMP180;10210;52.284;9.892;2022-12-24T01:30:53;99289.00;;;11.30
20103;BMP180;10210;52.284;9.892;2022-12-24T01:33:19;99295.00;;;11.30
20103;BMP180;10210;52.284;9.892;2022-12-24T01:35:46;99295.00;;;11.30
20103;BMP180;10210;52.284;9.892;2022-12-24T01:38:12;99298.00;;;11.30
20103;BMP180;10210;52.284;9.892;2022-12-24T01:40:40;99300.00;;;11.30
20103;BMP180;10210;52.284;9.892;2022-12-24T01:43:28;99297.00;;;11.30
20103;BMP180;10210;52.284;9.892;2022-12-24T01:46:26;99297.00;;;11.30
20103;BMP180;10210;52.284;9.892;2022-12-24T01:48:58;99317.00;;;11.30
20103;BMP180;10210;52.284;9.892;2022-12-24T01:51:39;99309.00;;;11.30
20103;BMP180;10210;52.284;9.892;2022-12-24T01:54:20;99310.00;;;11.30
20103;BMP180;10210;52.284;9.892;2022-12-24T01:57:02;99312.00;;;11.30
20103;BMP180;10210;52.284;9.892;2022-12-24T01:59:29;99313.00;;;11.30
20103;BMP180;10210;52.284;9.892;2022-12-24T02:01:55;99317.00;;;11.30
20103;BMP180;10210;52.284;9.892;2022-12-24T02:04:39;99311.00;;;11.30
20103;BMP180;10210;52.284;9.892;2022-12-24T02:07:07;99321.00;;;11.30
20103;BMP180;10210;52.284;9.892;2022-12-24T02:09:34;99316.00;;;11.30
20103;BMP180;10210;52.284;9.892;2022-12-24T02:12:02;99323.00;;;11.30
20103;BMP180;10210;52.284;9.892;2022-12-24T02:14:29;99318.00;;;11.30
20103;BMP180;10210;52.284;9.892;2022-12-24T02:23:02;99326.00;;;11.30
20103;BMP180;10210;52.284;9.892;2022-12-24T02:26:21;99333.00;;;11.40
20103;BMP180;10210;52.284;9.892;2022-12-24T02:32:32;99333.00;;;11.60
20103;BMP180;10210;52.284;9.892;2022-12-24T02:35:16;99355.00;;;11.70
20103;BMP180;10210;52.284;9.892;2022-12-24T02:37:55;99344.00;;;11.70
20103;BMP180;10210;52.284;9.892;2022-12-24T02:40:35;99339.00;;;11.80
20103;BMP180;10210;52.284;9.892;2022-12-24T02:43:09;99338.00;;;11.90
20103;BMP180;10210;52.284;9.892;2022-12-24T02:45:39;99344.00;;;12.00
20103;BMP180;10210;52.284;9.892;2022-12-24T02:48:08;99350.00;;;12.00
20103;BMP180;10210;52.284;9.892;2022-12-24T02:50:35;99343.00;;;12.10
20103;BMP180;10210;52.284;9.892;2022-12-24T02:53:00;99350.00;;;12.20
20103;BMP180;10210;52.284;9.892;2022-12-24T02:55:47;99352.00;;;12.20
20103;BMP180;10210;52.284;9.892;2022-12-24T02:58:41;99354.00;;;12.20
20103;BMP180;10210;52.284;9.892;2022-12-24T03:01:40;99361.00;;;12.20
20103;BMP180;10210;52.284;9.892;2022-12-24T03:04:22;99360.00;;;12.20
20103;BMP180;10210;52.284;9.892;2022-12-24T03:07:19;99368.00;;;12.30
20103;BMP180;10210;52.284;9.892;2022-12-24T03:10:59;99370.00;;;12.30
20103;BMP180;10210;52.284;9.892;2022-12-24T03:13:13;99385.00;;;12.40
20103;BMP180;10210;52.284;9.892;2022-12-24T03:15:41;99381.00;;;12.40
20103;BMP180;10210;52.284;9.892;2022-12-24T03:18:10;99386.00;;;12.40
20103;BMP180;10210;52.284;9.892;2022-12-24T03:20:42;99385.00;;;12.50
20103;BMP180;10210;52.284;9.892;2022-12-24T03:23:08;99394.00;;;12.50
20103;BMP180;10210;52.284;9.892;2022-12-24T03:25:39;99402.00;;;12.50
20103;BMP180;10210;52.284;9.892;2022-12-24T03:28:08;99403.00;;;12.60
20103;BMP180;10210;52.284;9.892;2022-12-24T03:30:38;99407.00;;;12.60
20103;BMP180;10210;52.284;9.892;2022-12-24T03:33:04;99421.00;;;12.60
20103;BMP180;10210;52.284;9.892;2022-12-24T03:35:30;99402.00;;;12.60
20103;BMP180;10210;52.284;9.892;2022-12-24T03:37:56;99415.00;;;12.60
20103;BMP180;10210;52.284;9.892;2022-12-24T03:40:21;99415.00;;;12.60
20103;BMP180;10210;52.284;9.892;2022-12-24T03:42:47;99426.00;;;12.60
20103;BMP180;10210;52.284;9.892;2022-12-24T03:45:13;99422.00;;;12.60
20103;BMP180;10210;52.284;9.892;2022-12-24T03:47:38;99441.00;;;12.60
20103;BMP180;10210;52.284;9.892;2022-12-24T03:50:05;99436.00;;;12.60
20103;BMP180;10210;52.284;9.892;2022-12-24T03:52:31;99436.00;;;12.60
20103;BMP180;10210;52.284;9.892;2022-12-24T03:54:57;99432.00;;;12.60
20103;BMP180;10210;52.284;9.892;2022-12-24T03:57:22;99435.00;;;12.60
20103;BMP180;10210;52.284;9.892;2022-12-24T03:59:48;99446.00;;;12.70
20103;BMP180;10210;52.284;9.892;2022-12-24T04:02:14;99449.00;;;12.70
20103;BMP180;10210;52.284;9.892;2022-12-24T04:04:39;99449.00;;;12.70
20103;BMP180;10210;52.284;9.892;2022-12-24T04:07:05;99446.00;;;12.70
20103;BMP180;10210;52.284;9.892;2022-12-24T04:09:31;99468.00;;;12.70
20103;BMP180;10210;52.284;9.892;2022-12-24T04:11:56;99472.00;;;12.70
20103;BMP180;10210;52.284;9.892;2022-12-24T04:14:22;99478.00;;;12.70
20103;BMP180;10210;52.284;9.892;2022-12-24T04:16:48;99481.00;;;12.70
20103;BMP180;10210;52.284;9.892;2022-12-24T04:19:13;99481.00;;;12.70
20103;BMP180;10210;52.284;9.892;2022-12-24T04:21:39;99492.00;;;12.70
20103;BMP180;10210;52.284;9.892;2022-12-24T04:24:05;99486.00;;;12.60
20103;BMP180;10210;52.284;9.892;2022-12-24T04:26:31;99474.00;;;12.60
20103;BMP180;10210;52.284;9.892;2022-12-24T04:28:56;99487.00;;;12.70
20103;BMP180;10210;52.284;9.892;2022-12-24T04:31:22;99493.00;;;12.70
20103;BMP180;10210;52.284;9.892;2022-12-24T04:33:50;99481.00;;;12.70
20103;BMP180;10210;52.284;9.892;2022-12-24T04:36:18;99491.00;;;12.70
20103;BMP180;10210;52.284;9.892;2022-12-24T04:38:46;99492.00;;;12.60
20103;BMP180;10210;52.284;9.892;2022-12-24T04:41:19;99501.00;;;12.60
20103;BMP180;10210;52.284;9.892;2022-12-24T04:43:46;99500.00;;;12.70
20103;BMP180;10210;52.284;9.892;2022-12-24T04:46:23;99499.00;;;12.60
20103;BMP180;10210;52.284;9.892;2022-12-24T04:48:51;99499.00;;;12.60
20103;BMP180;10210;52.284;9.892;2022-12-24T04:51:18;99514.00;;;12.70
20103;BMP180;10210;52.284;9.892;2022-12-24T04:53:44;99511.00;;;12.70
20103;BMP180;10210;52.284;9.892;2022-12-24T04:56:18;99504.00;;;12.70
20103;BMP180;10210;52.284;9.892;2022-12-24T04:58:46;99514.00;;;12.70
20103;BMP180;10210;52.284;9.892;2022-12-24T05:01:16;99518.00;;;12.70
20103;BMP180;10210;52.284;9.892;2022-12-24T05:03:42;99515.00;;;12.70
20103;BMP180;10210;52.284;9.892;2022-12-24T05:06:12;99523.00;;;12.70
20103;BMP180;10210;52.284;9.892;2022-12-24T05:08:38;99526.00;;;12.70
20103;BMP180;10210;52.284;9.892;2022-12-24T05:11:04;99518.00;;;12.70
20103;BMP180;10210;52.284;9.892;2022-12-24T05:13:30;99527.00;;;12.70
20103;BMP180;10210;52.284;9.892;2022-12-24T05:15:56;99538.00;;;12.70
20103;BMP180;10210;52.284;9.892;2022-12-24T05:18:23;99539.00;;;12.70
20103;BMP180;10210;52.284;9.892;2022-12-24T05:20:49;99539.00;;;12.70
20103;BMP180;10210;52.284;9.892;2022-12-24T05:23:21;99552.00;;;12.70
20103;BMP180;10210;52.284;9.892;2022-12-24T05:26:18;99542.00;;;12.70
20103;BMP180;10210;52.284;9.892;2022-12-24T05:28:50;99555.00;;;12.70
20103;BMP180;10210;52.284;9.892;2022-12-24T05:31:17;99553.00;;;12.80
20103;BMP180;10210;52.284;9.892;2022-12-24T05:33:43;99564.00;;;12.80
20103;BMP180;10210;52.284;9.892;2022-12-24T05:36:09;99553.00;;;12.90
20103;BMP180;10210;52.284;9.892;2022-12-24T05:38:35;99573.00;;;12.90
20103;BMP180;10210;52.284;9.892;2022-12-24T05:41:01;99587.00;;;12.90
20103;BMP180;10210;52.284;9.892;2022-12-24T05:43:27;99581.00;;;12.90
20103;BMP180;10210;52.284;9.892;2022-12-24T05:46:06;99585.00;;;12.90
20103;BMP180;10210;52.284;9.892;2022-12-24T05:48:32;99597.00;;;13.00
20103;BMP180;10210;52.284;9.892;2022-12-24T05:50:57;99600.00;;;13.00
20103;BMP180;10210;52.284;9.892;2022-12-24T05:53:23;99592.00;;;13.00
20103;BMP180;10210;52.284;9.892;2022-12-24T05:55:49;99598.00;;;13.00
20103;BMP180;10210;52.284;9.892;2022-12-24T05:58:15;99594.00;;;13.00
20103;BMP180;10210;52.284;9.892;2022-12-24T06:00:41;99610.00;;;13.10
20103;BMP180;10210;52.284;9.892;2022-12-24T06:03:07;99613.00;;;13.10
20103;BMP180;10210;52.284;9.892;2022-12-24T06:05:33;99609.00;;;13.10
20103;BMP180;10210;52.284;9.892;2022-12-24T06:07:58;99614.00;;;13.20
20103;BMP180;10210;52.284;9.892;2022-12-24T06:10:24;99608.00;;;13.20
20103;BMP180;10210;52.284;9.892;2022-12-24T06:12:50;99625.00;;;13.20
20103;BMP180;10210;52.284;9.892;2022-12-24T06:15:16;99631.00;;;13.20
20103;BMP180;10210;52.284;9.892;2022-12-24T06:17:41;99632.00;;;13.20
20103;BMP180;10210;52.284;9.892;2022-12-24T06:20:08;99643.00;;;13.20
20103;BMP180;10210;52.284;9.892;2022-12-24T06:22:34;99630.00;;;13.20
20103;BMP180;10210;52.284;9.892;2022-12-24T06:24:59;99636.00;;;13.20
20103;BMP180;10210;52.284;9.892;2022-12-24T06:27:25;99637.00;;;13.20
20103;BMP180;10210;52.284;9.892;2022-12-24T06:29:50;99638.00;;;13.20
20103;BMP180;10210;52.284;9.892;2022-12-24T06:32:16;99648.00;;;13.20
20103;BMP180;10210;52.284;9.892;2022-12-24T06:34:42;99655.00;;;13.30
20103;BMP180;10210;52.284;9.892;2022-12-24T06:37:07;99649.00;;;13.30
20103;BMP180;10210;52.284;9.892;2022-12-24T06:39:40;99660.00;;;13.30
20103;BMP180;10210;52.284;9.892;2022-12-24T06:42:06;99660.00;;;13.30
20103;BMP180;10210;52.284;9.892;2022-12-24T06:44:32;99672.00;;;13.30
20103;BMP180;10210;52.284;9.892;2022-12-24T06:46:57;99667.00;;;13.30
20103;BMP180;10210;52.284;9.892;2022-12-24T06:49:23;99678.00;;;13.30
20103;BMP180;10210;52.284;9.892;2022-12-24T06:51:48;99682.00;;;13.30
20103;BMP180;10210;52.284;9.892;2022-12-24T06:54:14;99688.00;;;13.30
20103;BMP180;10210;52.284;9.892;2022-12-24T06:56:40;99686.00;;;13.30
20103;BMP180;10210;52.284;9.892;2022-12-24T06:59:05;99690.00;;;13.30
20103;BMP180;10210;52.284;9.892;2022-12-24T07:01:31;99703.00;;;13.30
20103;BMP180;10210;52.284;9.892;2022-12-24T07:03:56;99696.00;;;13.30
20103;BMP180;10210;52.284;9.892;2022-12-24T07:06:28;99705.00;;;13.30
20103;BMP180;10210;52.284;9.892;2022-12-24T07:08:54;99712.00;;;13.30
20103;BMP180;10210;52.284;9.892;2022-12-24T07:11:21;99708.00;;;13.30
20103;BMP180;10210;52.284;9.892;2022-12-24T07:13:47;99705.00;;;13.20
20103;BMP180;10210;52.284;9.892;2022-12-24T07:16:14;99716.00;;;13.20
20103;BMP180;10210;52.284;9.892;2022-12-24T07:18:40;99720.00;;;13.20
20103;BMP180;10210;52.284;9.892;2022-12-24T07:21:06;99727.00;;;13.20
20103;BMP180;10210;52.284;9.892;2022-12-24T07:23:32;99714.00;;;13.20
20103;BMP180;10210;52.284;9.892;2022-12-24T07:26:00;99746.00;;;13.20
20103;BMP180;10210;52.284;9.892;2022-12-24T07:28:27;99746.00;;;13.20
20103;BMP180;10210;52.284;9.892;2022-12-24T07:30:54;99740.00;;;13.20
20103;BMP180;10210;52.284;9.892;2022-12-24T07:33:19;99745.00;;;13.20
20103;BMP180;10210;52.284;9.892;2022-12-24T07:35:46;99748.00;;;13.20
20103;BMP180;10210;52.284;9.892;2022-12-24T07:38:11;99752.00;;;13.20
20103;BMP180;10210;52.284;9.892;2022-12-24T07:40:37;99760.00;;;13.20
20103;BMP180;10210;52.284;9.892;2022-12-24T07:43:03;99756.00;;;13.20
20103;BMP180;10210;52.284;9.892;2022-12-24T07:45:28;99753.00;;;13.20
20103;BMP180;10210;52.284;9.892;2022-12-24T07:47:54;99759.00;;;13.20
20103;BMP180;10210;52.284;9.892;2022-12-24T07:50:19;99766.00;;;13.20
20103;BMP180;10210;52.284;9.892;2022-12-24T07:52:46;99774.00;;;13.20
20103;BMP180;10210;52.284;9.892;2022-12-24T07:55:12;99777.00;;;13.20
20103;BMP180;10210;52.284;9.892;2022-12-24T07:57:37;99784.00;;;13.20
20103;BMP180;10210;52.284;9.892;2022-12-24T08:00:04;99792.00;;;13.20
20103;BMP180;10210;52.284;9.892;2022-12-24T08:02:30;99788.00;;;13.20
20103;BMP180;10210;52.284;9.892;2022-12-24T08:04:55;99791.00;;;13.20
20103;BMP180;10210;52.284;9.892;2022-12-24T08:07:21;99795.00;;;13.20
20103;BMP180;10210;52.284;9.892;2022-12-24T08:09:47;99803.00;;;13.20
20103;BMP180;10210;52.284;9.892;2022-12-24T08:12:12;99792.00;;;13.20
20103;BMP180;10210;52.284;9.892;2022-12-24T08:14:38;99804.00;;;13.20
20103;BMP180;10210;52.284;9.892;2022-12-24T08:17:03;99803.00;;;13.20
20103;BMP180;10210;52.284;9.892;2022-12-24T08:19:29;99805.00;;;13.20
20103;BMP180;10210;52.284;9.892;2022-12-24T08:21:55;99818.00;;;13.20
20103;BMP180;10210;52.284;9.892;2022-12-24T08:24:20;99813.00;;;13.20
20103;BMP180;10210;52.284;9.892;2022-12-24T08:26:46;99825.00;;;13.20
20103;BMP180;10210;52.284;9.892;2022-12-24T08:29:12;99837.00;;;13.20
20103;BMP180;10210;52.284;9.892;2022-12-24T08:31:38;99831.00;;;13.20
20103;BMP180;10210;52.284;9.892;2022-12-24T08:34:06;99837.00;;;13.20
20103;BMP180;10210;52.284;9.892;2022-12-24T08:36:33;99843.00;;;13.30
20103;BMP180;10210;52.284;9.892;2022-12-24T08:38:59;99855.00;;;13.30
20103;BMP180;10210;52.284;9.892;2022-12-24T08:41:30;99867.00;;;13.30
20103;BMP180;10210;52.284;9.892;2022-12-24T08:43:56;99862.00;;;13.30
20103;BMP180;10210;52.284;9.892;2022-12-24T08:46:22;99868.00;;;13.30
20103;BMP180;10210;52.284;9.892;2022-12-24T08:48:47;99870.00;;;13.30
20103;BMP180;10210;52.284;9.892;2022-12-24T08:51:13;99873.00;;;13.40
20103;BMP180;10210;52.284;9.892;2022-12-24T08:53:39;99873.00;;;13.40
20103;BMP180;10210;52.284;9.892;2022-12-24T08:56:11;99877.00;;;13.40
20103;BMP180;10210;52.284;9.892;2022-12-24T08:58:38;99888.00;;;13.40
20103;BMP180;10210;52.284;9.892;2022-12-24T09:01:13;99878.00;;;13.40
20103;BMP180;10210;52.284;9.892;2022-12-24T09:03:39;99893.00;;;13.40
20103;BMP180;10210;52.284;9.892;2022-12-24T09:06:06;99895.00;;;13.50
20103;BMP180;10210;52.284;9.892;2022-12-24T09:08:33;99892.00;;;13.50
20103;BMP180;10210;52.284;9.892;2022-12-24T09:11:11;99889.00;;;13.50
20103;BMP180;10210;52.284;9.892;2022-12-24T09:13:38;99895.00;;;13.50
20103;BMP180;10210;52.284;9.892;2022-12-24T09:16:04;99899.00;;;13.50
20103;BMP180;10210;52.284;9.892;2022-12-24T09:18:30;99908.00;;;13.50
20103;BMP180;10210;52.284;9.892;2022-12-24T09:21:01;99903.00;;;13.50
20103;BMP180;10210;52.284;9.892;2022-12-24T09:23:28;99904.00;;;13.50
20103;BMP180;10210;52.284;9.892;2022-12-24T09:25:54;99909.00;;;13.50
20103;BMP180;10210;52.284;9.892;2022-12-24T09:28:21;99913.00;;;13.50
20103;BMP180;10210;52.284;9.892;2022-12-24T09:31:01;99918.00;;;13.50
20103;BMP180;10210;52.284;9.892;2022-12-24T09:33:31;99926.00;;;13.60
20103;BMP180;10210;52.284;9.892;2022-12-24T09:35:57;99927.00;;;13.70
20103;BMP180;10210;52.284;9.892;2022-12-24T09:38:23;99911.00;;;13.80
20103;BMP180;10210;52.284;9.892;2022-12-24T09:40:50;99923.00;;;13.90
20103;BMP180;10210;52.284;9.892;2022-12-24T09:43:20;99945.00;;;13.90
20103;BMP180;10210;52.284;9.892;2022-12-24T09:46:23;99946.00;;;13.90
20103;BMP180;10210;52.284;9.892;2022-12-24T09:48:56;99950.00;;;14.00
20103;BMP180;10210;52.284;9.892;2022-12-24T09:51:40;99956.00;;;13.90
20103;BMP180;10210;52.284;9.892;2022-12-24T09:54:20;99961.00;;;13.90
20103;BMP180;10210;52.284;9.892;2022-12-24T09:56:48;99966.00;;;13.90
20103;BMP180;10210;52.284;9.892;2022-12-24T09:59:20;99968.00;;;13.90
20103;BMP180;10210;52.284;9.892;2022-12-24T10:01:50;99962.00;;;13.90
20103;BMP180;10210;52.284;9.892;2022-12-24T10:04:20;99970.00;;;13.90
20103;BMP180;10210;52.284;9.892;2022-12-24T10:10:23;99975.00;;;13.80
20103;BMP180;10210;52.284;9.892;2022-12-24T10:13:13;99968.00;;;13.80
20103;BMP180;10210;52.284;9.892;2022-12-24T10:15:51;99984.00;;;13.80
20103;BMP180;10210;52.284;9.892;2022-12-24T10:24:31;99973.00;;;13.90
20103;BMP180;10210;52.284;9.892;2022-12-24T10:27:08;99987.00;;;13.90
20103;BMP180;10210;52.284;9.892;2022-12-24T10:29:42;99976.00;;;13.90
20103;BMP180;10210;52.284;9.892;2022-12-24T10:32:24;99975.00;;;13.90
20103;BMP180;10210;52.284;9.892;2022-12-24T10:37:42;99989.00;;;14.00
20103;BMP180;10210;52.284;9.892;2022-12-24T10:40:45;99991.00;;;14.00
20103;BMP180;10210;52.284;9.892;2022-12-24T10:43:22;99988.00;;;14.00
20103;BMP180;10210;52.284;9.892;2022-12-24T10:46:04;99997.00;;;14.00
20103;BMP180;10210;52.284;9.892;2022-12-24T10:48:48;99997.00;;;14.00
20103;BMP180;10210;52.284;9.892;2022-12-24T10:54:05;100007.00;;;14.10
20103;BMP180;10210;52.284;9.892;2022-12-24T10:56:31;100008.00;;;14.10
20103;BMP180;10210;52.284;9.892;2022-12-24T10:58:57;100001.00;;;14.10
20103;BMP180;10210;52.284;9.892;2022-12-24T11:01:45;100005.00;;;14.10
20103;BMP180;10210;52.284;9.892;2022-12-24T11:04:22;100011.00;;;14.10
20103;BMP180;10210;52.284;9.892;2022-12-24T11:06:59;100018.00;;;14.10
20103;BMP180;10210;52.284;9.892;2022-12-24T11:09:30;100010.00;;;14.10
20103;BMP180;10210;52.284;9.892;2022-12-24T11:11:58;100018.00;;;14.10
20103;BMP180;10210;52.284;9.892;2022-12-24T11:14:32;100021.00;;;14.10
20103;BMP180;10210;52.284;9.892;2022-12-24T11:16:59;100010.00;;;14.20
20103;BMP180;10210;52.284;9.892;2022-12-24T11:19:31;100019.00;;;14.20
20103;BMP180;10210;52.284;9.892;2022-12-24T11:22:15;100011.00;;;14.20
20103;BMP180;10210;52.284;9.892;2022-12-24T11:24:41;100015.00;;;14.10
20103;BMP180;10210;52.284;9.892;2022-12-24T11:27:48;100021.00;;;14.10
20103;BMP180;10210;52.284;9.892;2022-12-24T11:32:48;100023.00;;;14.10
20103;BMP180;10210;52.284;9.892;2022-12-24T11:35:22;100015.00;;;14.10
20103;BMP180;10210;52.284;9.892;2022-12-24T11:40:35;100020.00;;;14.10
20103;BMP180;10210;52.284;9.892;2022-12-24T11:43:04;100024.00;;;14.10
20103;BMP180;10210;52.284;9.892;2022-12-24T11:45:31;100019.00;;;14.20
20103;BMP180;10210;52.284;9.892;2022-12-24T11:47:59;100021.00;;;14.20
20103;BMP180;10210;52.284;9.892;2022-12-24T11:50:34;100036.00;;;14.20
20103;BMP180;10210;52.284;9.892;2022-12-24T11:53:15;100035.00;;;14.10
20103;BMP180;10210;52.284;9.892;2022-12-24T11:55:54;100031.00;;;14.10
20103;BMP180;10210;52.284;9.892;2022-12-24T11:58:42;100034.00;;;14.10
20103;BMP180;10210;52.284;9.892;2022-12-24T12:04:05;100017.00;;;14.00
20103;BMP180;10210;52.284;9.892;2022-12-24T12:06:56;100026.00;;;14.00
20103;BMP180;10210;52.284;9.892;2022-12-24T12:09:30;100038.00;;;13.90
20103;BMP180;10210;52.284;9.892;2022-12-24T12:12:26;100023.00;;;13.90
20103;BMP180;10210;52.284;9.892;2022-12-24T12:15:02;100036.00;;;13.80
20103;BMP180;10210;52.284;9.892;2022-12-24T12:18:31;100049.00;;;13.80
20103;BMP180;10210;52.284;9.892;2022-12-24T12:20:35;100036.00;;;13.80
20103;BMP180;10210;52.284;9.892;2022-12-24T12:24:05;100039.00;;;13.80
20103;BMP180;10210;52.284;9.892;2022-12-24T12:26:16;100037.00;;;13.80
20103;BMP180;10210;52.284;9.892;2022-12-24T12:31:58;100042.00;;;13.70
20103;BMP180;10210;52.284;9.892;2022-12-24T12:34:39;100039.00;;;13.70
20103;BMP180;10210;52.284;9.892;2022-12-24T12:37:38;100048.00;;;13.70
20103;BMP180;10210;52.284;9.892;2022-12-24T12:40:14;100049.00;;;13.80
20103;BMP180;10210;52.284;9.892;2022-12-24T12:42:52;100044.00;;;13.80
20103;BMP180;10210;52.284;9.892;2022-12-24T12:45:59;100063.00;;;13.80
20103;BMP180;10210;52.284;9.892;2022-12-24T12:51:24;100052.00;;;13.80
20103;BMP180;10210;52.284;9.892;2022-12-24T12:54:33;100053.00;;;13.80
20103;BMP180;10210;52.284;9.892;2022-12-24T12:57:07;100051.00;;;13.80
20103;BMP180;10210;52.284;9.892;2022-12-24T13:00:10;100052.00;;;13.80
20103;BMP180;10210;52.284;9.892;2022-12-24T13:02:55;100047.00;;;13.90
20103;BMP180;10210;52.284;9.892;2022-12-24T13:12:29;100065.00;;;13.90
20103;BMP180;10210;52.284;9.892;2022-12-24T13:20:28;100087.00;;;14.10
20103;BMP180;10210;52.284;9.892;2022-12-24T13:25:40;100092.00;;;14.20
20103;BMP180;10210;52.284;9.892;2022-12-24T13:36:15;100097.00;;;14.30
20103;BMP180;10210;52.284;9.892;2022-12-24T13:38:56;100103.00;;;14.30
20103;BMP180;10210;52.284;9.892;2022-12-24T13:49:48;100113.00;;;14.40
20103;BMP180;10210;52.284;9.892;2022-12-24T13:52:24;100113.00;;;14.40
20103;BMP180;10210;52.284;9.892;2022-12-24T13:57:39;100118.00;;;14.40
20103;BMP180;10210;52.284;9.892;2022-12-24T14:03:26;100120.00;;;14.40
20103;BMP180;10210;52.284;9.892;2022-12-24T14:06:09;100150.00;;;14.30
20103;BMP180;10210;52.284;9.892;2022-12-24T14:08:43;100149.00;;;14.20
20103;BMP180;10210;52.284;9.892;2022-12-24T14:11:21;100149.00;;;14.00
20103;BMP180;10210;52.284;9.892;2022-12-24T14:21:43;100155.00;;;13.50
20103;BMP180;10210;52.284;9.892;2022-12-24T14:24:24;100151.00;;;13.40
20103;BMP180;10210;52.284;9.892;2022-12-24T14:26:56;100168.00;;;13.40
20103;BMP180;10210;52.284;9.892;2022-12-24T14:29:31;100173.00;;;13.40
20103;BMP180;10210;52.284;9.892;2022-12-24T14:32:00;100181.00;;;13.40
20103;BMP180;10210;52.284;9.892;2022-12-24T14:34:30;100176.00;;;13.40
20103;BMP180;10210;52.284;9.892;2022-12-24T14:37:01;100191.00;;;13.40
20103;BMP180;10210;52.284;9.892;2022-12-24T14:39:37;100204.00;;;13.40
20103;BMP180;10210;52.284;9.892;2022-12-24T14:42:38;100202.00;;;13.30
20103;BMP180;10210;52.284;9.892;2022-12-24T14:45:45;100207.00;;;13.30
20103;BMP180;10210;52.284;9.892;2022-12-24T14:48:55;100201.00;;;13.20
20103;BMP180;10210;52.284;9.892;2022-12-24T14:51:52;100204.00;;;13.30
20103;BMP180;10210;52.284;9.892;2022-12-24T14:54:36;100213.00;;;13.30
20103;BMP180;10210;52.284;9.892;2022-12-24T14:59:53;100215.00;;;13.30
20103;BMP180;10210;52.284;9.892;2022-12-24T15:02:24;100222.00;;;13.30
20103;BMP180;10210;52.284;9.892;2022-12-24T15:05:28;100225.00;;;13.30
20103;BMP180;10210;52.284;9.892;2022-12-24T15:08:01;100224.00;;;13.30
20103;BMP180;10210;52.284;9.892;2022-12-24T15:10:33;100235.00;;;13.30
20103;BMP180;10210;52.284;9.892;2022-12-24T15:13:07;100241.00;;;13.30
20103;BMP180;10210;52.284;9.892;2022-12-24T15:15:34;100233.00;;;13.40
20103;BMP180;10210;52.284;9.892;2022-12-24T15:18:03;100246.00;;;13.40
20103;BMP180;10210;52.284;9.892;2022-12-24T15:20:30;100240.00;;;13.40
20103;BMP180;10210;52.284;9.892;2022-12-24T15:22:57;100249.00;;;13.40
20103;BMP180;10210;52.284;9.892;2022-12-24T15:25:30;100241.00;;;13.40
20103;BMP180;10210;52.284;9.892;2022-12-24T15:27:56;100249.00;;;13.40
20103;BMP180;10210;52.284;9.892;2022-12-24T15:30:27;100262.00;;;13.40
20103;BMP180;10210;52.284;9.892;2022-12-24T15:32:56;100255.00;;;13.40
20103;BMP180;10210;52.284;9.892;2022-12-24T15:38:29;100265.00;;;13.30
20103;BMP180;10210;52.284;9.892;2022-12-24T15:40:57;100267.00;;;13.30
20103;BMP180;10210;52.284;9.892;2022-12-24T15:43:24;100257.00;;;13.40
20103;BMP180;10210;52.284;9.892;2022-12-24T15:45:50;100264.00;;;13.30
20103;BMP180;10210;52.284;9.892;2022-12-24T15:48:24;100264.00;;;13.30
20103;BMP180;10210;52.284;9.892;2022-12-24T15:50:58;100284.00;;;13.30
20103;BMP180;10210;52.284;9.892;2022-12-24T15:53:40;100284.00;;;13.30
20103;BMP180;10210;52.284;9.892;2022-12-24T15:56:12;100285.00;;;13.30
20103;BMP180;10210;52.284;9.892;2022-12-24T15:58:41;100292.00;;;13.30
20103;BMP180;10210;52.284;9.892;2022-12-24T16:03:55;100290.00;;;13.30